Latest Weather Observations for Eucla

IDW60801

Issued at 12:33 pm WST Thursday 29 September 2016 (issued every 30 minutes, with the page automatically refreshed every 10 minutes)

About weather observations | Map of weather stations | Latest weather observations for WA | Other Formats
Station Details ID: 011003 Name: EUCLA Lat: -31.68 Lon: 128.90 Height: 93.1 m
Data from the previous 72 hours. | See also: Recent months at Eucla
Date/Time
WST
Temp
°C
App
Temp
°C
Dew
Point
°C
Rel
Hum
%
Delta-T
°C
Wind Press
QNH
hPa
Press
MSL
hPa
Rain since
9am
mm
Dir  Spd
km/h
Gust
km/h
Spd
kts
Gust
kts
29/12:30pm 10.5 4.6 7.7 83 1.4 SW 28 44 15 24 1016.2 1016.1 0.2
29/12:00pm 12.1 5.6 6.4 68 2.7 SSW 30 41 16 22 1016.1 1016.0 0.2
29/11:30am 14.2 8.0 6.1 58 3.9 SSW 28 44 15 24 1016.0 1015.9 0.2
29/11:00am 12.7 6.0 3.6 54 4.1 SW 28 46 15 25 1016.1 1016.0 0.0
29/10:30am 12.5 5.8 3.5 54 4.0 SW 28 46 15 25 1015.9 1015.8 0.0
29/10:00am 10.9 4.5 5.0 67 2.7 SSW 28 46 15 25 1016.2 1016.1 0.0
29/09:47am 11.7 4.9 5.3 65 3.0 SSW 30 48 16 26 1015.9 1015.8 0.0
29/09:30am 12.7 6.1 4.4 57 3.8 SW 28 43 15 23 1015.8 1015.7 0.0
29/09:00am 11.6 4.7 6.3 70 2.5 SSW 32 54 17 29 1015.9 1015.8 7.0
29/08:31am 11.3 3.7 4.1 61 3.2 SW 33 52 18 28 1015.7 1015.6 7.0
29/08:30am 11.4 3.9 4.6 63 3.1 SW 33 50 18 27 1015.6 1015.5 7.0
29/08:00am 10.9 4.1 5.0 67 2.7 SW 30 50 16 27 1015.5 1015.4 7.0
29/07:30am 9.1 2.6 6.7 85 1.1 SSW 30 50 16 27 1015.3 1015.2 7.0
29/07:18am 10.3 4.0 5.7 73 2.1 SW 28 48 15 26 1015.0 1014.9 7.0
29/07:00am 10.3 3.3 4.2 66 2.7 SW 30 46 16 25 1014.6 1014.5 7.0
29/06:45am 9.3 2.9 5.3 76 1.8 SW 28 50 15 27 1014.5 1014.4 7.0
29/06:30am 8.4 2.6 6.4 87 0.9 SW 26 43 14 23 1014.4 1014.3 7.0
29/06:00am 8.4 1.4 6.2 86 1.0 SSW 32 52 17 28 1014.1 1014.0 6.6
29/05:30am 8.4 1.5 4.8 78 1.6 SW 30 61 16 33 1013.6 1013.5 6.6
29/05:02am 8.3 1.8 4.9 79 1.5 SW 28 52 15 28 1013.3 1013.2 6.4
29/05:00am 8.5 2.4 4.9 78 1.6 SW 26 52 14 28 1013.2 1013.1 6.4
29/04:30am 9.2 2.5 3.4 67 2.5 SW 28 48 15 26 1013.1 1013.0 6.4
29/04:00am 9.3 1.8 3.7 68 2.4 SW 32 50 17 27 1012.4 1012.3 6.4
29/03:30am 9.1 2.0 3.5 68 2.4 SW 30 54 16 29 1012.0 1011.9 6.4
29/03:00am 8.6 0.9 3.4 70 2.2 SW 33 56 18 30 1011.7 1011.6 6.4
29/02:30am 9.5 1.7 1.9 59 3.2 SW 32 54 17 29 1011.4 1011.3 6.4
29/02:00am 9.2 1.4 3.0 65 2.7 SW 33 56 18 30 1011.2 1011.1 6.2
29/01:30am 8.5 1.2 4.7 77 1.7 SW 32 52 17 28 1011.2 1011.1 6.2
29/01:00am 9.5 1.2 2.1 60 3.1 SW 35 59 19 32 1010.9 1010.8 6.0
29/12:30am 8.6 1.8 3.0 68 2.4 WSW 28 48 15 26 1011.2 1011.1 6.0
29/12:00am 8.2 0.6 4.0 75 1.8 SW 33 54 18 29 1011.4 1011.3 6.0
 
Date/Time
WST
Temp
°C
App
Temp
°C
Dew
Point
°C
Rel
Hum
%
Delta-T
°C
Wind Press
QNH
hPa
Press
MSL
hPa
Rain since
9am
mm
Dir  Spd
km/h
Gust
km/h
Spd
kts
Gust
kts
28/11:46pm 8.3 1.6 3.8 73 2.0 SW 28 50 15 27 1011.4 1011.3 6.0
28/11:30pm 6.7 1.3 4.5 86 1.0 WSW 22 35 12 19 1011.5 1011.4 6.0
28/11:09pm 6.8 0.4 5.0 88 0.8 W 28 50 15 27 1011.6 1011.5 6.0
28/11:00pm 6.9 0.8 4.7 86 1.0 WSW 26 57 14 31 1011.5 1011.4 5.6
28/10:52pm 6.9 0.4 4.7 86 1.0 W 28 57 15 31 1011.7 1011.6 5.6
28/10:30pm 6.7 1.0 4.7 87 0.9 W 24 37 13 20 1011.9 1011.8 5.6
28/10:00pm 6.6 -0.2 5.1 90 0.7 W 30 50 16 27 1012.1 1012.0 5.4
28/09:30pm 6.6 -0.6 5.1 90 0.7 WSW 32 54 17 29 1012.0 1011.9 5.0
28/09:25pm 6.6 0.1 4.8 88 0.8 W 28 54 15 29 1012.2 1012.1 4.8
28/09:00pm 6.7 0.9 4.5 86 1.0 W 24 35 13 19 1011.7 1011.6 4.0
28/08:30pm 6.5 -0.1 4.3 86 1.0 W 28 48 15 26 1011.5 1011.4 3.8
28/08:04pm 6.8 0.3 4.8 87 0.9 W 28 48 15 26 1011.7 1011.6 3.8
28/08:00pm 7.0 0.8 4.5 84 1.1 W 26 37 14 20 1012.0 1011.9 3.6
28/07:30pm 7.0 0.4 4.0 81 1.3 W 28 46 15 25 1011.4 1011.3 3.4
28/07:20pm 6.9 0.3 4.0 82 1.2 W 28 46 15 25 1011.4 1011.3 3.4
28/07:00pm 6.5 1.0 4.2 85 1.0 W 22 37 12 20 1011.3 1011.2 3.4
28/06:30pm 6.9 1.6 4.9 87 0.9 W 22 39 12 21 1011.2 1011.1 3.2
28/06:00pm 7.2 0.9 3.8 79 1.5 W 26 39 14 21 1010.8 1010.7 2.8
28/05:32pm 7.6 0.8 3.3 74 1.8 WSW 28 46 15 25 1010.6 1010.5 2.8
28/05:30pm 7.6 0.5 3.3 74 1.8 WSW 30 46 16 25 1010.5 1010.4 2.8
28/05:00pm 7.9 0.9 4.3 78 1.6 W 30 48 16 26 1009.9 1009.8 2.8
28/04:30pm 7.8 0.9 4.7 81 1.4 WSW 30 57 16 31 1009.3 1009.2 2.8
28/04:07pm 7.2 -0.3 3.3 76 1.7 W 32 52 17 28 1008.7 1008.6 2.8
28/04:00pm 6.8 -0.6 4.1 83 1.2 W 32 48 17 26 1008.7 1008.6 2.8
28/03:31pm 8.7 1.5 5.8 82 1.3 WSW 33 52 18 28 1008.4 1008.3 1.2
28/03:30pm 8.9 1.7 5.8 81 1.4 WSW 33 50 18 27 1008.2 1008.1 1.2
28/03:00pm 10.7 3.2 3.3 60 3.3 W 32 57 17 31 1007.1 1007.0 0.8
28/02:30pm 8.9 -0.6 3.9 71 2.2 WSW 43 80 23 43 1007.7 1007.6 0.8
28/02:24pm 9.4 -0.3 4.0 69 2.4 WSW 44 80 24 43 1007.6 1007.5 0.8
28/02:00pm 11.2 3.2 4.0 61 3.2 W 35 61 19 33 1006.4 1006.3 0.8
28/01:30pm 8.0 0.0 4.0 76 1.7 W 35 56 19 30 1006.8 1006.7 0.8
28/01:00pm 8.5 0.6 6.3 86 1.0 WSW 37 63 20 34 1006.4 1006.3 0.4
28/12:30pm 12.2 2.4 -0.3 42 5.1 W 41 67 22 36 1005.6 1005.5 0.2
28/12:00pm 8.5 0.7 5.1 79 1.5 WSW 35 69 19 37 1006.1 1006.0 0.2
28/11:30am 11.8 3.1 4.3 60 3.4 WSW 39 63 21 34 1005.9 1005.8 0.0
28/11:00am 10.0 1.7 4.4 68 2.5 W 37 63 20 34 1005.9 1005.8 0.0
28/10:30am 11.3 2.5 3.8 60 3.3 WSW 39 59 21 32 1005.4 1005.3 0.0
28/10:00am 10.1 1.5 4.7 69 2.4 WSW 39 61 21 33 1005.3 1005.2 0.0
28/09:30am 13.3 4.4 1.0 43 5.2 W 37 65 20 35 1004.1 1004.0 0.0
28/09:00am 14.0 4.4 1.3 42 5.5 W 41 63 22 34 1003.7 1003.6 0.0
28/08:30am 13.8 4.7 1.8 44 5.2 W 39 65 21 35 1003.4 1003.3 0.0
28/08:00am 12.9 4.7 2.5 49 4.6 W 35 56 19 30 1003.2 1003.1 0.0
28/07:30am 13.1 6.0 3.5 52 4.3 W 30 50 16 27 1002.8 1002.7 0.0
28/07:00am 12.5 5.0 3.2 53 4.2 W 32 50 17 27 1002.5 1002.4 0.0
28/06:30am 12.2 3.7 3.4 55 3.9 W 37 59 20 32 1002.2 1002.1 0.0
28/06:19am 12.2 5.5 3.7 56 3.8 W 28 61 15 33 1002.0 1001.9 0.0
28/06:00am 12.1 6.0 4.8 61 3.4 W 26 44 14 24 1001.9 1001.8 0.0
28/05:47am 11.5 5.0 4.7 63 3.1 W 28 46 15 25 1001.7 1001.6 0.0
28/05:30am 11.6 5.3 3.9 59 3.5 WNW 26 41 14 22 1001.2 1001.1 0.0
28/05:00am 12.2 4.7 3.7 56 3.8 W 32 50 17 27 1000.8 1000.7 0.0
28/04:46am 12.9 6.2 3.6 53 4.2 W 28 48 15 26 1000.5 1000.4 0.0
28/04:30am 12.9 7.4 4.1 55 4.0 W 22 35 12 19 1000.1 1000.0 0.0
28/04:00am 13.3 8.3 6.4 63 3.3 W 22 37 12 20 999.8 999.7 0.0
28/03:30am 12.8 8.2 6.6 66 3.0 WSW 20 30 11 16 999.9 999.8 0.0
28/03:00am 13.5 6.1 6.8 64 3.3 WSW 35 61 19 33 999.8 999.7 0.0
28/02:30am 14.8 8.3 9.0 68 3.0 WSW 33 57 18 31 999.3 999.2 0.0
28/02:05am 17.5 9.8 -3.3 24 8.4 NNW 28 48 15 26 997.9 997.7 0.0
28/02:00am 17.5 10.1 -3.3 24 8.5 NNW 26 37 14 20 997.0 996.8 0.0
28/01:30am 16.5 9.9 -3.6 25 8.0 N 22 33 12 18 996.4 996.3 0.0
28/01:00am 16.3 9.3 -3.7 25 8.0 N 24 32 13 17 997.3 997.1 0.0
28/12:30am 15.5 8.8 -3.9 26 7.6 N 22 30 12 16 998.4 998.2 0.0
28/12:00am 14.8 8.5 -4.0 27 7.3 N 20 30 11 16 999.3 999.2 0.0
 
Date/Time
WST
Temp
°C
App
Temp
°C
Dew
Point
°C
Rel
Hum
%
Delta-T
°C
Wind Press
QNH
hPa
Press
MSL
hPa
Rain since
9am
mm
Dir  Spd
km/h
Gust
km/h
Spd
kts
Gust
kts
27/11:30pm 15.1 8.8 -4.2 26 7.5 N 20 28 11 15 1000.3 1000.2 0.0
27/11:00pm 14.5 8.4 -4.2 27 7.2 NNE 19 26 10 14 1001.1 1001.0 0.0
27/10:30pm 14.3 8.6 -3.9 28 7.0 NNE 17 22 9 12 1002.0 1001.9 0.0
27/10:00pm 14.3 9.0 -3.9 28 7.1 NNE 15 19 8 10 1003.0 1002.9 0.0
27/09:30pm 14.3 8.6 -3.5 29 6.9 NNE 17 19 9 10 1003.7 1003.6 0.0
27/09:00pm 14.8 9.5 -3.5 28 7.2 NNE 15 19 8 10 1004.3 1004.2 0.0
27/08:30pm 15.0 10.1 -3.3 28 7.2 NNE 13 17 7 9 1004.9 1004.8 0.0
27/08:00pm 16.6 11.7 -3.0 26 8.0 NNE 13 17 7 9 1005.3 1005.2 0.0
27/07:30pm 17.5 12.6 -3.3 24 8.4 NNE 13 19 7 10 1005.5 1005.4 0.0
27/07:00pm 18.4 13.5 -3.1 23 8.9 NNE 13 17 7 9 1005.8 1005.7 0.0
27/06:30pm 18.8 14.0 -2.7 23 8.9 NNE 13 17 7 9 1006.1 1006.0 0.0
27/06:00pm 19.7 14.9 -2.6 22 9.4 NNE 13 19 7 10 1006.3 1006.2 0.0
27/05:30pm 18.4 14.5 1.4 32 7.7 N 11 15 6 8 1006.4 1006.3 0.0
27/05:00pm 20.3 16.1 1.7 29 8.6 ENE 13 19 7 10 1006.5 1006.4 0.0
27/04:30pm 22.0 17.6 0.5 24 9.8 NE 13 22 7 12 1006.8 1006.7 0.0
27/04:00pm 24.6 19.1 -2.0 17 11.8 NNW 17 30 9 16 1007.0 1006.9 0.0
27/03:30pm 23.6 19.1 -0.6 20 10.9 WNW 13 26 7 14 1007.3 1007.2 0.0
27/03:00pm 23.7 20.0 0.1 21 10.8 WNW 9 19 5 10 1007.7 1007.6 0.0
27/02:30pm 25.2 20.4 -2.4 16 12.2 NNW 13 32 7 17 1008.7 1008.6 0.0
27/02:00pm 26.0 20.6 -1.7 16 12.5 NNW 17 30 9 16 1009.1 1009.0 0.0
27/01:30pm 25.7 21.4 -2.0 16 12.4 N 11 32 6 17 1009.7 1009.6 0.0
27/01:00pm 26.0 20.9 -1.7 16 12.5 NNW 15 28 8 15 1010.4 1010.3 0.0
27/12:30pm 24.4 19.6 -2.2 17 11.7 NNW 13 32 7 17 1011.0 1010.9 0.0
27/12:00pm 24.8 19.3 -1.9 17 11.9 NNW 17 28 9 15 1012.0 1011.9 0.0
27/11:30am 24.7 20.0 -2.0 17 11.9 NW 13 26 7 14 1012.7 1012.6 0.0
27/11:00am 23.7 18.9 -2.8 17 11.5 NNW 13 22 7 12 1013.5 1013.4 0.0
27/10:30am 23.2 18.1 -1.7 19 11.0 NNW 15 28 8 15 1014.1 1014.0 0.0
27/10:00am 22.6 17.2 -1.5 20 10.6 N 17 28 9 15 1014.8 1014.7 0.0
27/09:30am 21.0 15.4 -0.3 24 9.5 NNW 19 28 10 15 1015.2 1015.1 0.0
27/09:00am 19.9 14.0 1.4 29 8.4 N 22 33 12 18 1015.5 1015.4 0.0
27/08:30am 18.4 12.7 2.7 35 7.3 N 22 30 12 16 1015.8 1015.7 0.0
27/08:00am 17.1 11.5 3.4 40 6.4 N 22 33 12 18 1016.0 1015.9 0.0
27/07:30am 15.1 9.1 3.6 46 5.3 N 24 33 13 18 1016.1 1016.0 0.0
27/07:00am 12.7 7.1 3.6 54 4.1 N 22 33 12 18 1016.1 1016.0 0.0
27/06:30am 10.4 5.1 3.2 61 3.1 N 20 32 11 17 1016.1 1016.0 0.0
27/06:00am 8.0 2.7 2.9 70 2.2 N 20 30 11 16 1016.1 1016.0 0.0
27/05:30am 6.4 1.2 2.7 77 1.5 N 19 26 10 14 1016.0 1015.9 0.0
27/05:00am 6.3 1.2 2.8 78 1.5 N 19 28 10 15 1015.8 1015.7 0.0
27/04:30am 6.5 1.4 2.9 78 1.5 N 19 24 10 13 1015.7 1015.6 0.0
27/04:00am 6.4 1.7 3.0 79 1.4 N 17 22 9 12 1015.7 1015.6 0.0
27/03:30am 6.1 1.4 2.9 80 1.3 N 17 22 9 12 1015.3 1015.2 0.0
27/03:00am 5.7 1.0 3.0 83 1.1 N 17 22 9 12 1015.2 1015.1 0.0
27/02:30am 5.7 1.0 3.0 83 1.1 N 17 24 9 13 1015.3 1015.2 0.0
27/02:00am 5.8 1.1 3.3 84 1.0 N 17 20 9 11 1015.6 1015.5 0.0
27/01:30am 5.3 1.4 3.2 86 0.9 N 13 17 7 9 1016.0 1015.9 0.0
27/01:00am 4.8 0.4 2.7 86 0.9 N 15 17 8 9 1016.1 1016.0 0.0
27/12:30am 4.7 0.7 2.6 86 0.9 N 13 17 7 9 1016.6 1016.5 0.0
27/12:00am 4.6 0.5 2.3 85 0.9 N 13 13 7 7 1016.9 1016.9 0.0
 
Date/Time
WST
Temp
°C
App
Temp
°C
Dew
Point
°C
Rel
Hum
%
Delta-T
°C
Wind Press
QNH
hPa
Press
MSL
hPa
Rain since
9am
mm
Dir  Spd
km/h
Gust
km/h
Spd
kts
Gust
kts
26/11:30pm 5.7 2.1 3.0 83 1.1 NNE 11 13 6 7 1017.1 1017.1 0.0
26/11:00pm 5.9 1.9 2.9 81 1.2 NNE 13 13 7 7 1017.5 1017.5 0.0
26/10:30pm 5.8 2.2 3.1 83 1.1 NNE 11 13 6 7 1017.8 1017.8 0.0
26/10:00pm 5.3 1.6 2.3 81 1.2 NNE 11 13 6 7 1017.9 1017.9 0.0
26/09:30pm 5.6 2.3 2.3 79 1.3 NNE 9 11 5 6 1018.1 1018.1 0.0
26/09:00pm 6.3 3.0 2.6 77 1.5 NNE 9 11 5 6 1018.1 1018.1 0.0
26/08:30pm 7.5 4.4 3.7 77 1.6 ENE 9 11 5 6 1018.2 1018.2 0.0
26/08:00pm 8.0 4.9 3.7 74 1.9 ESE 9 9 5 5 1018.2 1018.2 0.0
26/07:30pm 8.7 6.0 3.5 70 2.3 SE 7 9 4 5 1018.0 1018.0 0.0
26/07:00pm 9.5 6.8 3.9 68 2.5 SE 7 9 4 5 1017.6 1017.6 0.0
26/06:30pm 10.5 7.9 4.2 65 2.8 SE 7 11 4 6 1017.4 1017.4 0.0
26/06:00pm 10.9 7.8 3.7 61 3.2 SSE 9 11 5 6 1017.2 1017.2 0.0
26/05:30pm 11.6 8.5 3.4 57 3.6 S 9 13 5 7 1017.1 1017.1 0.0
26/05:00pm 12.9 9.0 3.6 53 4.2 SSE 13 19 7 10 1017.1 1017.1 0.0
26/04:30pm 13.8 9.9 3.6 50 4.6 SSE 13 22 7 12 1016.9 1016.9 0.0
26/04:00pm 14.4 10.6 4.1 50 4.7 SSE 13 20 7 11 1016.7 1016.6 0.0
26/03:30pm 14.7 10.4 3.5 47 5.1 SSE 15 20 8 11 1016.6 1016.5 0.0
26/03:00pm 15.8 11.8 4.8 48 5.2 SSE 15 22 8 12 1016.4 1016.3 0.0
26/02:30pm 15.6 11.3 5.2 50 5.0 SSE 17 28 9 15 1016.4 1016.3 0.0
26/02:00pm 15.5 11.2 5.1 50 4.9 S 17 30 9 16 1016.6 1016.5 0.0
26/01:30pm 16.1 11.8 5.1 48 5.2 SSE 17 28 9 15 1016.6 1016.5 0.0
26/01:00pm 16.3 11.8 4.4 45 5.6 SSW 17 28 9 15 1016.7 1016.6 0.0

Other Formats:

Comma delimited format used in spreadsheet applications
http://www.bom.gov.au/fwo/IDW60801/IDW60801.94647.axf

JavaScript Object Notation format (JSON) in row-major order
http://www.bom.gov.au/fwo/IDW60801/IDW60801.94647.json